BKP183 VTBS-VTSM
Flight info
| Callsign | BKP183 |
|---|---|
| Flight time | 0h 44m |
| Altitude | 31000 |
| Route | N0464F310 KASNI M757 MABKO W33 UPNEP |
| Aircraft | A319/M-SDE3FGHIRWY/LB1 |
Departure
| Time | 2026-04-17 13:20 |
|---|---|
| Airport | Suvarnabhumi Airport (VTBS) |
Arrival
| Time | 2026-04-17 14:04 |
|---|---|
| Airport | Samui International Airport (VTSM) |
| Time | Latitude | Longitude | Altitude | Speed | Heading |
|---|---|---|---|---|---|
| 2026-04-17 13:02 | 13.69593 | 100.75615 | 13 ft | 0 kts | 284° |
| 2026-04-17 13:13 | 13.69592 | 100.75616 | 13 ft | 1 kts | 284° |
| 2026-04-17 13:14 | 13.69588 | 100.75633 | 13 ft | 3 kts | 283° |
| 2026-04-17 13:14 | 13.69584 | 100.75653 | 14 ft | 3 kts | 281° |
| 2026-04-17 13:14 | 13.69580 | 100.75674 | 16 ft | 3 kts | 277° |
| 2026-04-17 13:14 | 13.69579 | 100.75694 | 16 ft | 3 kts | 266° |
| 2026-04-17 13:15 | 13.69582 | 100.75713 | 15 ft | 3 kts | 236° |
| 2026-04-17 13:15 | 13.69590 | 100.75722 | 14 ft | 1 kts | 195° |
| 2026-04-17 13:15 | 13.69591 | 100.75722 | 14 ft | 0 kts | 194° |
| 2026-04-17 13:16 | 13.69583 | 100.75721 | 14 ft | 3 kts | 194° |
| 2026-04-17 13:17 | 13.69556 | 100.75739 | 13 ft | 7 kts | 124° |
| 2026-04-17 13:17 | 13.69540 | 100.75795 | 13 ft | 10 kts | 105° |
| 2026-04-17 13:17 | 13.69520 | 100.75871 | 13 ft | 12 kts | 105° |
| 2026-04-17 13:17 | 13.69493 | 100.75966 | 13 ft | 15 kts | 112° |
| 2026-04-17 13:18 | 13.69403 | 100.75975 | 13 ft | 15 kts | 195° |
| 2026-04-17 13:18 | 13.69293 | 100.75944 | 12 ft | 18 kts | 194° |
| 2026-04-17 13:18 | 13.69205 | 100.75974 | 12 ft | 15 kts | 104° |
| 2026-04-17 13:18 | 13.69160 | 100.76077 | 12 ft | 15 kts | 142° |
| 2026-04-17 13:19 | 13.69058 | 100.76075 | 14 ft | 17 kts | 194° |
| 2026-04-17 13:19 | 13.68812 | 100.76010 | 15 ft | 62 kts | 194° |
| 2026-04-17 13:19 | 13.68225 | 100.75855 | 13 ft | 112 kts | 194° |
| 2026-04-17 13:19 | 13.67317 | 100.75619 | 66 ft | 150 kts | 194° |
| 2026-04-17 13:20 | 13.66309 | 100.75367 | 613 ft | 149 kts | 194° |
| 2026-04-17 13:20 | 13.65270 | 100.75284 | 1106 ft | 152 kts | 176° |
| 2026-04-17 13:20 | 13.64207 | 100.75304 | 1534 ft | 154 kts | 181° |
| 2026-04-17 13:20 | 13.63100 | 100.75289 | 1831 ft | 169 kts | 180° |
| 2026-04-17 13:21 | 13.61839 | 100.75270 | 2014 ft | 194 kts | 180° |
| 2026-04-17 13:21 | 13.60406 | 100.75287 | 2323 ft | 217 kts | 173° |
| 2026-04-17 13:21 | 13.58836 | 100.75551 | 2645 ft | 241 kts | 166° |
| 2026-04-17 13:21 | 13.57155 | 100.76023 | 3199 ft | 257 kts | 163° |
| 2026-04-17 13:22 | 13.55426 | 100.76571 | 3994 ft | 262 kts | 162° |
| 2026-04-17 13:22 | 13.53661 | 100.77133 | 4776 ft | 269 kts | 162° |
| 2026-04-17 13:22 | 13.51850 | 100.77695 | 5535 ft | 275 kts | 163° |
| 2026-04-17 13:22 | 13.50000 | 100.78254 | 6340 ft | 279 kts | 163° |
| 2026-04-17 13:23 | 13.48119 | 100.78807 | 7096 ft | 282 kts | 164° |
| 2026-04-17 13:23 | 13.46219 | 100.79361 | 7868 ft | 286 kts | 164° |
| 2026-04-17 13:23 | 13.44293 | 100.79916 | 8642 ft | 289 kts | 164° |
| 2026-04-17 13:23 | 13.42370 | 100.80463 | 9415 ft | 292 kts | 165° |
| 2026-04-17 13:24 | 13.40390 | 100.81025 | 10015 ft | 303 kts | 164° |
| 2026-04-17 13:24 | 13.38248 | 100.81474 | 10197 ft | 326 kts | 174° |
| 2026-04-17 13:24 | 13.35916 | 100.81531 | 10464 ft | 342 kts | 180° |
| 2026-04-17 13:24 | 13.33512 | 100.81516 | 11007 ft | 348 kts | 180° |
| 2026-04-17 13:25 | 13.31075 | 100.81482 | 11596 ft | 353 kts | 184° |
| 2026-04-17 13:25 | 13.28644 | 100.81038 | 12180 ft | 358 kts | 196° |
| 2026-04-17 13:25 | 13.26333 | 100.80050 | 12782 ft | 362 kts | 209° |
| 2026-04-17 13:25 | 13.24198 | 100.78653 | 13363 ft | 366 kts | 213° |
| 2026-04-17 13:26 | 13.22054 | 100.77207 | 13904 ft | 370 kts | 213° |
| 2026-04-17 13:26 | 13.19887 | 100.75751 | 14401 ft | 374 kts | 213° |
| 2026-04-17 13:26 | 13.17696 | 100.74283 | 14929 ft | 377 kts | 212° |
| 2026-04-17 13:26 | 13.15490 | 100.72810 | 15450 ft | 380 kts | 213° |
| 2026-04-17 13:27 | 13.13269 | 100.71325 | 15975 ft | 382 kts | 212° |
| 2026-04-17 13:27 | 13.11028 | 100.69832 | 16467 ft | 386 kts | 211° |
| 2026-04-17 13:27 | 13.08615 | 100.68605 | 16932 ft | 389 kts | 199° |
| 2026-04-17 13:27 | 13.05996 | 100.67887 | 17434 ft | 391 kts | 188° |
| 2026-04-17 13:28 | 13.03279 | 100.67688 | 17926 ft | 393 kts | 180° |
| 2026-04-17 13:28 | 13.00536 | 100.67626 | 18391 ft | 396 kts | 180° |
| 2026-04-17 13:28 | 12.97776 | 100.67559 | 18842 ft | 398 kts | 181° |
| 2026-04-17 13:28 | 12.95007 | 100.67490 | 19304 ft | 400 kts | 181° |
| 2026-04-17 13:29 | 12.92210 | 100.67420 | 19735 ft | 403 kts | 181° |
| 2026-04-17 13:29 | 12.89401 | 100.67346 | 20191 ft | 405 kts | 181° |
| 2026-04-17 13:29 | 12.86580 | 100.67271 | 20651 ft | 407 kts | 181° |
| 2026-04-17 13:29 | 12.83734 | 100.67198 | 21092 ft | 409 kts | 182° |
| 2026-04-17 13:30 | 12.80880 | 100.67123 | 21519 ft | 412 kts | 182° |
| 2026-04-17 13:30 | 12.78008 | 100.67045 | 21943 ft | 414 kts | 182° |
| 2026-04-17 13:30 | 12.75118 | 100.66968 | 22349 ft | 416 kts | 182° |
| 2026-04-17 13:30 | 12.72214 | 100.66892 | 22745 ft | 418 kts | 182° |
| 2026-04-17 13:31 | 12.69325 | 100.66815 | 23130 ft | 421 kts | 182° |
| 2026-04-17 13:31 | 12.66390 | 100.66737 | 23495 ft | 423 kts | 182° |
| 2026-04-17 13:31 | 12.63443 | 100.66662 | 23805 ft | 425 kts | 182° |
| 2026-04-17 13:31 | 12.60473 | 100.66585 | 24118 ft | 427 kts | 182° |
| 2026-04-17 13:32 | 12.57490 | 100.66507 | 24431 ft | 429 kts | 182° |
| 2026-04-17 13:32 | 12.54499 | 100.66430 | 24737 ft | 431 kts | 183° |
| 2026-04-17 13:32 | 12.51499 | 100.66351 | 25051 ft | 432 kts | 183° |
| 2026-04-17 13:32 | 12.48485 | 100.66272 | 25352 ft | 434 kts | 183° |
| 2026-04-17 13:33 | 12.45448 | 100.66193 | 25650 ft | 436 kts | 183° |
| 2026-04-17 13:33 | 12.42411 | 100.66114 | 25943 ft | 438 kts | 183° |
| 2026-04-17 13:33 | 12.39353 | 100.66036 | 26243 ft | 440 kts | 183° |
| 2026-04-17 13:33 | 12.36289 | 100.65958 | 26538 ft | 442 kts | 183° |
| 2026-04-17 13:34 | 12.33205 | 100.65878 | 26816 ft | 444 kts | 183° |
| 2026-04-17 13:34 | 12.30103 | 100.65798 | 27097 ft | 446 kts | 183° |
| 2026-04-17 13:34 | 12.26992 | 100.65716 | 27365 ft | 448 kts | 183° |
| 2026-04-17 13:34 | 12.23872 | 100.65631 | 27652 ft | 449 kts | 183° |
| 2026-04-17 13:35 | 12.20738 | 100.65546 | 27924 ft | 451 kts | 183° |
| 2026-04-17 13:35 | 12.17591 | 100.65461 | 28189 ft | 453 kts | 183° |
| 2026-04-17 13:35 | 12.14475 | 100.65376 | 28449 ft | 455 kts | 183° |
| 2026-04-17 13:35 | 12.11302 | 100.65294 | 28714 ft | 457 kts | 183° |
| 2026-04-17 13:36 | 12.08071 | 100.65213 | 28974 ft | 459 kts | 183° |
| 2026-04-17 13:36 | 12.04868 | 100.65132 | 29229 ft | 461 kts | 184° |
| 2026-04-17 13:36 | 12.01698 | 100.65052 | 29472 ft | 463 kts | 184° |
| 2026-04-17 13:36 | 11.98468 | 100.64972 | 29723 ft | 465 kts | 184° |
| 2026-04-17 13:37 | 11.95231 | 100.64892 | 29955 ft | 466 kts | 184° |
| 2026-04-17 13:37 | 11.91978 | 100.64812 | 30164 ft | 468 kts | 184° |
| 2026-04-17 13:37 | 11.88717 | 100.64732 | 30372 ft | 469 kts | 184° |
| 2026-04-17 13:37 | 11.85448 | 100.64649 | 30578 ft | 471 kts | 184° |
| 2026-04-17 13:38 | 11.82169 | 100.64563 | 30778 ft | 472 kts | 184° |
| 2026-04-17 13:38 | 11.78894 | 100.64477 | 30864 ft | 467 kts | 184° |
| 2026-04-17 13:38 | 11.75689 | 100.64398 | 30885 ft | 455 kts | 184° |
| 2026-04-17 13:38 | 11.72542 | 100.64321 | 30885 ft | 450 kts | 184° |
| 2026-04-17 13:39 | 11.66303 | 100.64162 | 30884 ft | 448 kts | 184° |
| 2026-04-17 13:39 | 11.60075 | 100.64004 | 30888 ft | 448 kts | 184° |
| 2026-04-17 13:40 | 11.53847 | 100.63847 | 30888 ft | 447 kts | 184° |
| 2026-04-17 13:40 | 11.47624 | 100.63689 | 30886 ft | 447 kts | 184° |
| 2026-04-17 13:41 | 11.41397 | 100.63528 | 30883 ft | 447 kts | 184° |
| 2026-04-17 13:41 | 11.35179 | 100.63373 | 30877 ft | 447 kts | 184° |
| 2026-04-17 13:42 | 11.28955 | 100.63224 | 30876 ft | 447 kts | 184° |
| 2026-04-17 13:42 | 11.22781 | 100.63069 | 30876 ft | 447 kts | 184° |
| 2026-04-17 13:43 | 11.16569 | 100.62904 | 30873 ft | 447 kts | 184° |
| 2026-04-17 13:43 | 11.10354 | 100.62749 | 30869 ft | 447 kts | 184° |
| 2026-04-17 13:44 | 11.04128 | 100.62595 | 30873 ft | 447 kts | 184° |
| 2026-04-17 13:44 | 10.97908 | 100.62434 | 30873 ft | 447 kts | 184° |
| 2026-04-17 13:45 | 10.91689 | 100.62281 | 30873 ft | 447 kts | 184° |
| 2026-04-17 13:45 | 10.85457 | 100.62129 | 30641 ft | 448 kts | 184° |
| 2026-04-17 13:46 | 10.82338 | 100.62049 | 30414 ft | 449 kts | 184° |
| 2026-04-17 13:46 | 10.79213 | 100.61967 | 30188 ft | 449 kts | 184° |
| 2026-04-17 13:46 | 10.76086 | 100.61885 | 29952 ft | 449 kts | 184° |
| 2026-04-17 13:46 | 10.72980 | 100.61805 | 29441 ft | 446 kts | 184° |
| 2026-04-17 13:47 | 10.69881 | 100.61728 | 28879 ft | 442 kts | 184° |
| 2026-04-17 13:47 | 10.66814 | 100.61653 | 28322 ft | 439 kts | 184° |
| 2026-04-17 13:47 | 10.63768 | 100.61580 | 27773 ft | 436 kts | 184° |
| 2026-04-17 13:47 | 10.60741 | 100.61505 | 27223 ft | 433 kts | 183° |
| 2026-04-17 13:48 | 10.58751 | 100.61455 | 26861 ft | 431 kts | 183° |
| 2026-04-17 13:48 | 10.55766 | 100.61382 | 26322 ft | 428 kts | 183° |
| 2026-04-17 13:48 | 10.52799 | 100.61310 | 25802 ft | 425 kts | 183° |
| 2026-04-17 13:48 | 10.49848 | 100.61236 | 25278 ft | 422 kts | 183° |
| 2026-04-17 13:49 | 10.45971 | 100.61138 | 24599 ft | 419 kts | 183° |
| 2026-04-17 13:49 | 10.43065 | 100.61064 | 24095 ft | 417 kts | 182° |
| 2026-04-17 13:49 | 10.41102 | 100.61015 | 23766 ft | 415 kts | 182° |
| 2026-04-17 13:49 | 10.38221 | 100.60944 | 23245 ft | 413 kts | 182° |
| 2026-04-17 13:50 | 10.35401 | 100.60873 | 22762 ft | 409 kts | 182° |
| 2026-04-17 13:50 | 10.32573 | 100.60804 | 22295 ft | 405 kts | 182° |
| 2026-04-17 13:50 | 10.29768 | 100.60737 | 21817 ft | 401 kts | 182° |
| 2026-04-17 13:50 | 10.26989 | 100.60673 | 21346 ft | 398 kts | 182° |
| 2026-04-17 13:51 | 10.24233 | 100.60607 | 20860 ft | 395 kts | 182° |
| 2026-04-17 13:51 | 10.21465 | 100.60541 | 20377 ft | 391 kts | 182° |
| 2026-04-17 13:51 | 10.18786 | 100.60476 | 19886 ft | 389 kts | 181° |
| 2026-04-17 13:51 | 10.16093 | 100.60407 | 19396 ft | 386 kts | 181° |
| 2026-04-17 13:52 | 10.13410 | 100.60337 | 18888 ft | 384 kts | 181° |
| 2026-04-17 13:52 | 10.10742 | 100.60270 | 18386 ft | 382 kts | 181° |
| 2026-04-17 13:52 | 10.08097 | 100.60138 | 17626 ft | 385 kts | 188° |
| 2026-04-17 13:52 | 10.05519 | 100.59317 | 16591 ft | 395 kts | 207° |
| 2026-04-17 13:53 | 10.03312 | 100.57693 | 15759 ft | 389 kts | 221° |
| 2026-04-17 13:53 | 10.01322 | 100.55852 | 14850 ft | 385 kts | 222° |
| 2026-04-17 13:53 | 9.99363 | 100.54023 | 13969 ft | 381 kts | 221° |
| 2026-04-17 13:53 | 9.97420 | 100.52203 | 13024 ft | 377 kts | 221° |
| 2026-04-17 13:54 | 9.93609 | 100.48640 | 11236 ft | 367 kts | 221° |
| 2026-04-17 13:54 | 9.91749 | 100.46908 | 10600 ft | 356 kts | 221° |
| 2026-04-17 13:55 | 9.88276 | 100.43676 | 10155 ft | 324 kts | 221° |
| 2026-04-17 13:55 | 9.86642 | 100.42155 | 10023 ft | 313 kts | 221° |
| 2026-04-17 13:55 | 9.83503 | 100.39234 | 9657 ft | 304 kts | 221° |
| 2026-04-17 13:56 | 9.80413 | 100.36359 | 8845 ft | 303 kts | 221° |
| 2026-04-17 13:56 | 9.78871 | 100.34927 | 8560 ft | 298 kts | 221° |
| 2026-04-17 13:56 | 9.77335 | 100.33505 | 8166 ft | 298 kts | 221° |
| 2026-04-17 13:57 | 9.75817 | 100.32098 | 7850 ft | 295 kts | 221° |
| 2026-04-17 13:57 | 9.74489 | 100.30528 | 7399 ft | 293 kts | 237° |
| 2026-04-17 13:57 | 9.73476 | 100.26589 | 6271 ft | 293 kts | 269° |
| 2026-04-17 13:58 | 9.73484 | 100.24537 | 5804 ft | 290 kts | 269° |
| 2026-04-17 13:58 | 9.73493 | 100.20367 | 4561 ft | 299 kts | 269° |
| 2026-04-17 13:58 | 9.73496 | 100.18262 | 4001 ft | 298 kts | 269° |
| 2026-04-17 13:59 | 9.73501 | 100.14309 | 3799 ft | 266 kts | 269° |
| 2026-04-17 13:59 | 9.73449 | 100.12469 | 3694 ft | 249 kts | 258° |
| 2026-04-17 13:59 | 9.72832 | 100.10910 | 3595 ft | 231 kts | 232° |
| 2026-04-17 14:00 | 9.71693 | 100.09810 | 3345 ft | 221 kts | 208° |
| 2026-04-17 14:00 | 9.70385 | 100.09192 | 3273 ft | 201 kts | 202° |
| 2026-04-17 14:00 | 9.69117 | 100.08613 | 2895 ft | 198 kts | 202° |
| 2026-04-17 14:00 | 9.67865 | 100.08036 | 2501 ft | 197 kts | 202° |
| 2026-04-17 14:01 | 9.66615 | 100.07462 | 2259 ft | 197 kts | 202° |
| 2026-04-17 14:01 | 9.65408 | 100.06909 | 2020 ft | 185 kts | 202° |
| 2026-04-17 14:01 | 9.64271 | 100.06387 | 1780 ft | 173 kts | 202° |
| 2026-04-17 14:01 | 9.63207 | 100.05899 | 1571 ft | 163 kts | 201° |
| 2026-04-17 14:02 | 9.62161 | 100.05601 | 1375 ft | 151 kts | 184° |
| 2026-04-17 14:02 | 9.61167 | 100.05625 | 1181 ft | 139 kts | 171° |
| 2026-04-17 14:02 | 9.60207 | 100.05718 | 1002 ft | 137 kts | 171° |
| 2026-04-17 14:02 | 9.59265 | 100.05810 | 848 ft | 135 kts | 172° |
| 2026-04-17 14:03 | 9.58333 | 100.05913 | 691 ft | 135 kts | 171° |
| 2026-04-17 14:03 | 9.57403 | 100.06006 | 456 ft | 134 kts | 172° |
| 2026-04-17 14:03 | 9.56479 | 100.06082 | 293 ft | 133 kts | 172° |
| 2026-04-17 14:03 | 9.55563 | 100.06174 | 73 ft | 131 kts | 172° |
| 2026-04-17 14:04 | 9.54772 | 100.06252 | 53 ft | 84 kts | 175° |
| 2026-04-17 14:04 | 9.54419 | 100.06281 | 53 ft | 37 kts | 175° |
| 2026-04-17 14:04 | 9.54247 | 100.06282 | 51 ft | 9 kts | 169° |
| 2026-04-17 14:04 | 9.54258 | 100.06300 | 53 ft | 5 kts | 352° |
| 2026-04-17 14:05 | 9.54310 | 100.06292 | 53 ft | 10 kts | 352° |
| 2026-04-17 14:05 | 9.54392 | 100.06280 | 53 ft | 13 kts | 351° |
| 2026-04-17 14:05 | 9.54488 | 100.06268 | 53 ft | 15 kts | 357° |
| 2026-04-17 14:05 | 9.54598 | 100.06261 | 53 ft | 17 kts | 356° |
| 2026-04-17 14:06 | 9.54721 | 100.06251 | 51 ft | 19 kts | 354° |
| 2026-04-17 14:06 | 9.54857 | 100.06236 | 51 ft | 21 kts | 354° |
| 2026-04-17 14:06 | 9.54992 | 100.06227 | 53 ft | 14 kts | 19° |
| 2026-04-17 14:06 | 9.55029 | 100.06305 | 51 ft | 11 kts | 27° |
| 2026-04-17 14:07 | 9.55101 | 100.06301 | 53 ft | 11 kts | 353° |
| 2026-04-17 14:07 | 9.55158 | 100.06298 | 53 ft | 2 kts | 31° |
| 2026-04-17 14:07 | 9.55161 | 100.06321 | 53 ft | 4 kts | 91° |
| 2026-04-17 14:07 | 9.55162 | 100.06338 | 53 ft | 0 kts | 85° |